Time;durP1;ratioP1;P1;durP2;ratioP2;P2;SDS_P1;SDS_P2;PMS_P1;PMS_P2;Temp;Humidity;BMP_temperature;BMP_pressure;BME280_temperature;BME280_humidity;BME280_pressure;Samples;Min_cycle;Max_cycle;Signal;HPM_P1;HPM_P2
2022/03/12 00:01:02;;;;;;;9.88;6.60;;;;;;;;;;4811075;29;20425;-79
2022/03/12 00:03:30;;;;;;;11.40;6.45;;;;;;;;;;4804181;29;20427;-79
2022/03/12 00:05:57;;;;;;;11.15;6.88;;;;;;;;;;4816000;29;20870;-79
2022/03/12 00:08:41;;;;;;;9.27;6.05;;;;;;;;;;4777817;29;20428;-79
2022/03/12 00:11:11;;;;;;;11.98;6.72;;;8.00;93.90;;;;;;4832001;29;20540;-79
2022/03/12 00:13:37;;;;;;;10.07;6.88;;;;;;;;;;4822944;29;20435;-79
2022/03/12 00:16:04;;;;;;;14.73;6.57;;;;;;;;;;4790906;29;20443;-79
2022/03/12 00:18:30;;;;;;;10.10;6.15;;;;;;;;;;4787180;29;20511;-79
2022/03/12 00:21:00;;;;;;;10.25;6.50;;;;;;;;;;4793664;29;20427;-79
2022/03/12 00:23:28;;;;;;;11.10;6.53;;;;;;;;;;4808700;29;20512;-79
2022/03/12 00:25:54;;;;;;;12.73;6.63;;;;;;;;;;4805871;29;20663;-79
2022/03/12 00:28:20;;;;;;;10.57;6.50;;;;;;;;;;4789524;29;20435;-79
2022/03/12 00:30:49;;;;;;;9.45;6.47;;;;;;;;;;4802489;29;20769;-79
2022/03/12 00:33:17;;;;;;;10.70;6.53;;;;;;;;;;4806013;29;20427;-79
2022/03/12 00:35:44;;;;;;;12.52;6.90;;;;;;;;;;4796761;29;20517;-80
2022/03/12 00:38:10;;;;;;;10.10;6.82;;;;;;;;;;4816429;29;20763;-80
2022/03/12 00:40:36;;;;;;;8.83;6.60;;;;;;;;;;4786514;29;20668;-79
2022/03/12 00:43:02;;;;;;;11.10;6.22;;;;;;;;;;4786628;29;20792;-79
2022/03/12 00:45:29;;;;;;;10.20;6.53;;;;;;;;;;4784763;29;20484;-79
2022/03/12 00:47:55;;;;;;;9.98;6.40;;;;;;;;;;4794295;29;20447;-80
2022/03/12 00:50:21;;;;;;;9.32;6.35;;;;;;;;;;4772338;29;20431;-80
2022/03/12 00:52:47;;;;;;;12.52;6.88;;;;;;;;;;4830481;29;20424;-80
2022/03/12 00:55:13;;;;;;;9.98;6.63;;;;;;;;;;4774785;29;20430;-80
2022/03/12 00:57:39;;;;;;;9.40;6.23;;;;;;;;;;4816934;29;20525;-79
2022/03/12 01:00:13;;;;;;;12.38;6.60;;;8.20;93.70;;;;;;4778725;29;20786;-80
2022/03/12 01:02:39;;;;;;;11.20;6.90;;;;;;;;;;4802943;29;20427;-80
2022/03/12 01:05:05;;;;;;;10.30;6.03;;;;;;;;;;4783537;29;20995;-80
2022/03/12 01:07:31;;;;;;;11.20;6.43;;;;;;;;;;4774310;29;20442;-80
2022/03/12 01:09:59;;;;;;;11.30;6.30;;;;;;;;;;4820948;29;20432;-78
2022/03/12 01:12:25;;;;;;;11.85;6.57;;;;;;;;;;4764996;29;20445;-77
2022/03/12 01:14:51;;;;;;;10.13;6.77;;;;;;;;;;4821141;29;20464;-78
2022/03/12 01:17:17;;;;;;;10.52;6.10;;;;;;;;;;4790382;29;20492;-78
2022/03/12 01:19:43;;;;;;;11.05;6.30;;;;;;;;;;4793261;29;20425;-78
2022/03/12 01:22:19;;;;;;;11.80;6.63;;;;;;;;;;4791424;29;21170;-78
2022/03/12 01:24:46;;;;;;;10.93;6.13;;;;;;;;;;4827364;29;20430;-78
2022/03/12 01:27:14;;;;;;;13.00;6.75;;;;;;;;;;4782249;29;20940;-78
2022/03/12 01:29:40;;;;;;;13.57;7.20;;;;;;;;;;4804728;29;20426;-78
2022/03/12 01:32:06;;;;;;;12.27;6.75;;;;;;;;;;4783481;29;20431;-78
2022/03/12 01:34:32;;;;;;;12.20;6.97;;;;;;;;;;4790813;29;20780;-78
2022/03/12 01:36:58;;;;;;;12.45;6.53;;;;;;;;;;4774843;29;20792;-77
2022/03/12 01:39:24;;;;;;;11.18;7.10;;;;;;;;;;4804201;29;20836;-77
2022/03/12 01:41:52;;;;;;;12.70;6.75;;;;;;;;;;4787181;29;20467;-78
2022/03/12 01:44:18;;;;;;;11.40;6.82;;;;;;;;;;4820802;29;20788;-78
2022/03/12 01:46:46;;;;;;;11.18;6.35;;;8.10;94.00;;;;;;4817562;29;20595;-78
2022/03/12 01:49:18;;;;;;;10.40;6.30;;;;;;;;;;4790101;29;20932;-78
2022/03/12 01:51:47;;;;;;;11.30;6.63;;;8.10;93.80;;;;;;4798090;29;20484;-78
2022/03/12 01:54:17;;;;;;;10.90;6.68;;;;;;;;;;4789751;29;20428;-78
2022/03/12 01:56:43;;;;;;;10.32;6.97;;;;;;;;;;4808213;29;20439;-78
2022/03/12 01:59:09;;;;;;;8.98;6.30;;;;;;;;;;4814698;29;20934;-78
2022/03/12 02:01:35;;;;;;;11.60;6.57;;;;;;;;;;4799234;29;20466;-78
2022/03/12 02:04:02;;;;;;;11.18;6.68;;;;;;;;;;4795979;29;20424;-78
2022/03/12 02:06:28;;;;;;;9.23;6.70;;;;;;;;;;4777101;29;20816;-78
2022/03/12 02:08:57;;;;;;;10.53;6.83;;;7.90;94.00;;;;;;4800175;29;20429;-78
2022/03/12 02:11:27;;;;;;;10.80;6.70;;;8.20;94.00;;;;;;4789607;29;21012;-78
2022/03/12 02:14:08;;;;;;;15.20;7.18;;;;;;;;;;4789228;29;20443;-78
2022/03/12 02:16:34;;;;;;;12.00;6.88;;;;;;;;;;4778840;29;20423;-77
2022/03/12 02:19:01;;;;;;;11.35;6.55;;;8.00;93.80;;;;;;4790287;29;21069;-78
2022/03/12 02:21:50;;;;;;;10.32;7.22;;;;;;;;;;4779266;29;20431;-78
2022/03/12 02:24:17;;;;;;;10.68;6.75;;;;;;;;;;4823348;29;20921;-78
2022/03/12 02:26:43;;;;;;;11.65;7.15;;;;;;;;;;4786112;29;20457;-78
2022/03/12 02:29:16;;;;;;;9.95;6.80;;;;;;;;;;4791386;29;20908;-78
2022/03/12 02:31:46;;;;;;;11.82;7.18;;;;;;;;;;4794456;29;20434;-78
2022/03/12 02:34:13;;;;;;;12.30;6.72;;;;;;;;;;4789139;29;20432;-78
2022/03/12 02:36:40;;;;;;;10.57;6.70;;;;;;;;;;4796423;29;20446;-78
2022/03/12 02:39:07;;;;;;;9.52;6.72;;;7.90;94.50;;;;;;4791593;29;20431;-78
2022/03/12 02:41:34;;;;;;;15.77;7.10;;;;;;;;;;4795020;29;20439;-78
2022/03/12 02:44:00;;;;;;;10.98;6.78;;;;;;;;;;4785911;29;20942;-78
2022/03/12 02:46:30;;;;;;;13.80;6.88;;;7.80;94.40;;;;;;4802626;29;20453;-78
2022/03/12 02:48:56;;;;;;;12.40;6.68;;;;;;;;;;4773089;29;20440;-78
2022/03/12 02:51:22;;;;;;;12.20;6.75;;;7.80;94.40;;;;;;4801372;29;20484;-78
2022/03/12 02:53:56;;;;;;;10.05;6.63;;;;;;;;;;4769217;30;20466;-78
2022/03/12 02:56:23;;;;;;;15.73;7.00;;;;;;;;;;4771880;29;20446;-78
2022/03/12 02:58:50;;;;;;;10.63;6.80;;;;;;;;;;4816254;29;20435;-78
2022/03/12 03:01:16;;;;;;;11.95;6.78;;;;;;;;;;4765977;30;20930;-78
2022/03/12 03:03:46;;;;;;;13.63;7.28;;;;;;;;;;4786048;29;20425;-78
2022/03/12 03:06:15;;;;;;;11.75;7.20;;;;;;;;;;4799079;29;20549;-78
2022/03/12 03:08:43;;;;;;;12.40;7.03;;;;;;;;;;4771761;30;20464;-77
2022/03/12 03:11:16;;;;;;;11.23;7.15;;;7.80;94.70;;;;;;4772273;29;20439;-77
2022/03/12 03:13:44;;;;;;;10.88;7.28;;;7.80;94.90;;;;;;4781145;30;20429;-78
2022/03/12 03:16:10;;;;;;;10.40;6.78;;;;;;;;;;4802732;29;20929;-78
2022/03/12 03:18:39;;;;;;;11.95;6.95;;;;;;;;;;4773276;29;20435;-78
2022/03/12 03:21:06;;;;;;;10.25;6.90;;;;;;;;;;4797434;29;20435;-78
2022/03/12 03:23:32;;;;;;;10.57;6.93;;;;;;;;;;4788793;29;20428;-78
2022/03/12 03:26:02;;;;;;;11.85;7.57;;;7.80;94.80;;;;;;4814311;29;20447;-78
2022/03/12 03:28:29;;;;;;;12.00;7.10;;;;;;;;;;4772605;29;20572;-77
2022/03/12 03:30:55;;;;;;;11.95;6.90;;;;;;;;;;4777754;30;20436;-78
2022/03/12 03:33:23;;;;;;;11.73;7.40;;;;;;;;;;4774623;29;20427;-77
2022/03/12 03:35:50;;;;;;;10.63;7.03;;;;;;;;;;4774466;29;20516;-77
2022/03/12 03:38:16;;;;;;;11.98;7.07;;;;;;;;;;4799758;29;20445;-77
2022/03/12 03:40:43;;;;;;;10.60;7.28;;;;;;;;;;4804174;29;20438;-78
2022/03/12 03:43:12;;;;;;;10.98;7.38;;;;;;;;;;4782582;30;20441;-76
2022/03/12 03:45:38;;;;;;;12.73;7.57;;;;;;;;;;4774696;29;20451;-77
2022/03/12 03:48:05;;;;;;;16.98;11.25;;;;;;;;;;4799502;29;20439;-77
2022/03/12 03:50:31;;;;;;;11.68;7.47;;;;;;;;;;4794572;29;20427;-77
2022/03/12 03:53:03;;;;;;;12.07;7.35;;;7.60;96.10;;;;;;4789008;29;20500;-77
2022/03/12 03:55:30;;;;;;;12.25;7.20;;;;;;;;;;4784584;29;20464;-77
2022/03/12 03:57:57;;;;;;;12.48;7.55;;;;;;;;;;4782603;29;20433;-77
2022/03/12 04:00:23;;;;;;;13.90;7.32;;;;;;;;;;4787795;29;20961;-77
2022/03/12 04:03:01;;;;;;;10.88;7.18;;;7.30;96.40;;;;;;4787713;29;20422;-77
2022/03/12 04:05:27;;;;;;;11.32;7.35;;;;;;;;;;4790936;29;20453;-77
2022/03/12 04:07:54;;;;;;;11.73;7.60;;;;;;;;;;4806349;29;20560;-77
2022/03/12 04:10:20;;;;;;;12.23;7.22;;;;;;;;;;4788267;29;20578;-77
2022/03/12 04:12:46;;;;;;;14.93;7.40;;;;;;;;;;4797440;29;20779;-77
2022/03/12 04:15:13;;;;;;;11.48;7.30;;;;;;;;;;4779591;29;20826;-77
2022/03/12 04:17:41;;;;;;;12.60;7.05;;;;;;;;;;4794604;29;20430;-77
2022/03/12 04:20:08;;;;;;;10.38;7.28;;;;;;;;;;4774042;29;20427;-77
2022/03/12 04:22:38;;;;;;;10.70;7.13;;;;;;;;;;4787477;29;20427;-77
2022/03/12 04:25:05;;;;;;;9.95;6.90;;;;;;;;;;4811011;29;20436;-77
2022/03/12 04:27:31;;;;;;;13.30;7.80;;;;;;;;;;4797851;29;20427;-77
2022/03/12 04:29:57;;;;;;;11.82;7.32;;;;;;;;;;4787085;29;20459;-77
2022/03/12 04:32:23;;;;;;;11.23;7.60;;;;;;;;;;4786311;29;20435;-77
2022/03/12 04:34:49;;;;;;;12.55;7.50;;;;;;;;;;4815573;29;20446;-77
2022/03/12 04:37:15;;;;;;;11.65;7.30;;;;;;;;;;4813972;29;20430;-77
2022/03/12 04:39:41;;;;;;;12.23;7.07;;;;;;;;;;4809383;29;20431;-77
2022/03/12 04:42:08;;;;;;;10.73;7.30;;;;;;;;;;4789576;29;20483;-77
2022/03/12 04:44:34;;;;;;;10.85;7.38;;;;;;;;;;4815934;29;20442;-78
2022/03/12 04:47:01;;;;;;;13.77;7.70;;;;;;;;;;4787546;29;20466;-78
2022/03/12 04:49:27;;;;;;;11.13;7.32;;;;;;;;;;4767648;29;20425;-78
2022/03/12 04:51:53;;;;;;;12.35;7.32;;;;;;;;;;4771085;29;20438;-77
2022/03/12 04:54:19;;;;;;;12.82;7.60;;;;;;;;;;4797032;29;20487;-80
2022/03/12 04:56:46;;;;;;;11.77;7.53;;;;;;;;;;4787369;29;20438;-78
2022/03/12 04:59:13;;;;;;;12.93;7.63;;;;;;;;;;4801535;29;20446;-78
2022/03/12 05:01:39;;;;;;;14.80;7.60;;;;;;;;;;4780606;29;20806;-78
2022/03/12 05:04:05;;;;;;;12.68;7.68;;;;;;;;;;4798665;29;20431;-78
2022/03/12 05:06:32;;;;;;;11.82;7.38;;;;;;;;;;4802277;29;20455;-78
2022/03/12 05:08:58;;;;;;;13.68;7.38;;;;;;;;;;4780772;29;20437;-78
2022/03/12 05:11:24;;;;;;;11.60;7.68;;;;;;;;;;4803487;29;20443;-78
2022/03/12 05:13:53;;;;;;;13.55;7.75;;;;;;;;;;4816465;29;20511;-78
2022/03/12 05:16:19;;;;;;;15.50;8.40;;;;;;;;;;4801099;29;20435;-78
2022/03/12 05:18:45;;;;;;;13.73;7.93;;;;;;;;;;4797552;29;20756;-79
2022/03/12 05:21:11;;;;;;;11.25;7.38;;;;;;;;;;4792416;29;20428;-77
2022/03/12 05:23:37;;;;;;;14.40;7.60;;;;;;;;;;4779853;29;20423;-78
2022/03/12 05:26:05;;;;;;;11.07;7.60;;;;;;;;;;4825670;29;20488;-78
2022/03/12 05:28:32;;;;;;;12.60;7.82;;;;;;;;;;4754489;29;20429;-78
2022/03/12 05:31:03;;;;;;;13.10;8.65;;;6.50;99.90;;;;;;4802659;29;20427;-78
2022/03/12 05:33:29;;;;;;;12.13;8.15;;;;;;;;;;4771452;29;20487;-78
2022/03/12 05:35:56;;;;;;;13.68;8.00;;;;;;;;;;4795345;29;20421;-77
2022/03/12 05:38:23;;;;;;;12.23;8.03;;;;;;;;;;4791082;29;20473;-77
2022/03/12 05:40:50;;;;;;;11.25;7.65;;;;;;;;;;4799239;29;20429;-78
2022/03/12 05:43:17;;;;;;;11.25;7.90;;;;;;;;;;4786531;29;20430;-78
2022/03/12 05:45:48;;;;;;;12.48;8.10;;;;;;;;;;4786784;29;20455;-77
2022/03/12 05:48:16;;;;;;;11.27;8.18;;;6.10;99.90;;;;;;4789051;29;20434;-77
2022/03/12 05:50:42;;;;;;;10.85;7.90;;;;;;;;;;4824933;29;20427;-77
2022/03/12 05:53:09;;;;;;;13.07;7.68;;;;;;;;;;4792949;29;20455;-77
2022/03/12 05:55:39;;;;;;;12.60;8.40;;;;;;;;;;4791241;29;20432;-78
2022/03/12 05:58:06;;;;;;;12.80;7.77;;;;;;;;;;4789982;29;20511;-78
2022/03/12 06:00:33;;;;;;;12.77;7.85;;;;;;;;;;4790102;29;20446;-77
2022/03/12 06:03:00;;;;;;;13.80;8.13;;;;;;;;;;4792780;29;20446;-78
2022/03/12 06:05:26;;;;;;;12.27;7.60;;;;;;;;;;4804131;29;20936;-77
2022/03/12 06:07:54;;;;;;;14.05;8.23;;;6.10;99.90;;;;;;4789817;29;20446;-77
2022/03/12 06:10:24;;;;;;;12.75;8.38;;;;;;;;;;4774747;29;20514;-77
2022/03/12 06:12:53;;;;;;;11.38;7.75;;;6.20;99.90;;;;;;4789117;29;20948;-78
2022/03/12 06:15:20;;;;;;;10.88;7.60;;;;;;;;;;4774935;29;20970;-78
2022/03/12 06:17:47;;;;;;;13.27;8.20;;;;;;;;;;4789462;29;20951;-77
2022/03/12 06:20:14;;;;;;;11.63;8.00;;;6.80;99.90;;;;;;4797506;29;20842;-77
2022/03/12 06:22:40;;;;;;;11.07;7.63;;;6.70;99.90;;;;;;4792452;29;20431;-78
2022/03/12 06:25:08;;;;;;;12.88;8.43;;;6.10;99.80;;;;;;4782557;29;20418;-77
2022/03/12 06:27:34;;;;;;;23.25;7.75;;;;;;;;;;4823390;29;20928;-78
2022/03/12 06:30:02;;;;;;;11.80;7.50;;;;;;;;;;4797622;29;20810;-78
2022/03/12 06:32:31;;;;;;;12.85;8.20;;;;;;;;;;4789994;29;20757;-77
2022/03/12 06:34:57;;;;;;;11.40;8.00;;;;;;;;;;4798432;29;20417;-77
2022/03/12 06:37:24;;;;;;;16.58;8.25;;;;;;;;;;4790860;29;20914;-77
2022/03/12 06:39:50;;;;;;;12.32;8.07;;;;;;;;;;4789352;29;20464;-77
2022/03/12 06:42:17;;;;;;;10.73;7.88;;;;;;;;;;4773679;29;20423;-76
2022/03/12 06:44:43;;;;;;;10.60;7.68;;;;;;;;;;4802869;29;20443;-77
2022/03/12 06:47:10;;;;;;;11.38;7.32;;;;;;;;;;4782392;29;20816;-76
2022/03/12 06:49:39;;;;;;;13.57;7.75;;;;;;;;;;4793184;29;20426;-76
2022/03/12 06:52:06;;;;;;;11.00;7.50;;;;;;;;;;4807592;29;20433;-77
2022/03/12 06:54:33;;;;;;;10.85;7.72;;;;;;;;;;4801653;29;20465;-76
2022/03/12 06:57:01;;;;;;;13.13;7.60;;;;;;;;;;4759500;29;20434;-76
2022/03/12 06:59:27;;;;;;;11.45;7.78;;;;;;;;;;4792379;29;20431;-77
2022/03/12 07:01:53;;;;;;;11.45;7.38;;;;;;;;;;4809922;29;20492;-77
2022/03/12 07:04:21;;;;;;;13.88;7.80;;;;;;;;;;4803940;29;20829;-76
2022/03/12 07:06:48;;;;;;;12.55;7.97;;;;;;;;;;4777957;29;20440;-76
2022/03/12 07:09:14;;;;;;;13.07;8.10;;;;;;;;;;4789564;29;20427;-76
2022/03/12 07:11:40;;;;;;;12.15;7.90;;;;;;;;;;4787467;29;20997;-77
2022/03/12 07:14:06;;;;;;;14.97;8.00;;;;;;;;;;4788664;29;20511;-76
2022/03/12 07:16:32;;;;;;;12.73;7.78;;;;;;;;;;4797311;29;20784;-76
2022/03/12 07:18:58;;;;;;;11.97;8.13;;;;;;;;;;4794358;29;20464;-76
2022/03/12 07:21:25;;;;;;;11.60;8.07;;;;;;;;;;4801413;29;20442;-76
2022/03/12 07:23:51;;;;;;;11.97;7.90;;;;;;;;;;4788732;29;20450;-76
2022/03/12 07:26:17;;;;;;;10.50;7.35;;;;;;;;;;4786509;29;20447;-84
2022/03/12 07:28:43;;;;;;;15.30;8.00;;;;;;;;;;4786795;29;21011;-79
2022/03/12 07:31:09;;;;;;;12.80;8.15;;;;;;;;;;4788288;29;20564;-79
2022/03/12 07:33:35;;;;;;;14.35;8.18;;;;;;;;;;4788875;29;20423;-79
2022/03/12 07:36:01;;;;;;;15.07;8.27;;;;;;;;;;4817737;29;20435;-79
2022/03/12 07:38:27;;;;;;;13.02;8.07;;;;;;;;;;4773605;29;20762;-79
2022/03/12 07:40:53;;;;;;;13.85;8.27;;;;;;;;;;4787932;29;20457;-79
2022/03/12 07:43:20;;;;;;;13.23;8.30;;;;;;;;;;4787878;29;20466;-78
2022/03/12 07:45:46;;;;;;;13.43;8.07;;;;;;;;;;4787766;29;20960;-77
2022/03/12 07:48:13;;;;;;;15.68;8.10;;;;;;;;;;4781234;29;20510;-78
2022/03/12 07:50:39;;;;;;;14.93;8.40;;;;;;;;;;4778852;29;20488;-79
2022/03/12 07:53:05;;;;;;;11.50;8.18;;;;;;;;;;4787837;29;20435;-79
2022/03/12 07:55:31;;;;;;;13.93;8.30;;;;;;;;;;4774020;29;20542;-78
2022/03/12 07:57:57;;;;;;;13.25;8.43;;;;;;;;;;4817280;29;20435;-80
2022/03/12 08:00:28;;;;;;;15.38;8.32;;;;;;;;;;4797113;29;20431;-78
2022/03/12 08:02:55;;;;;;;12.38;7.90;;;;;;;;;;4798166;29;20427;-80
2022/03/12 08:05:24;;;;;;;13.35;8.27;;;;;;;;;;4783647;29;20429;-79
2022/03/12 08:07:52;;;;;;;13.67;8.53;;;;;;;;;;4809059;29;20431;-78
2022/03/12 08:10:18;;;;;;;13.73;8.40;;;;;;;;;;4791765;29;20437;-78
2022/03/12 08:12:46;;;;;;;15.65;8.20;;;;;;;;;;4812809;29;20436;-78
2022/03/12 08:15:14;;;;;;;14.25;8.50;;;;;;;;;;4816782;29;20764;-79
2022/03/12 08:17:40;;;;;;;16.00;9.38;;;;;;;;;;4791265;29;20431;-79
2022/03/12 08:20:06;;;;;;;15.25;8.52;;;;;;;;;;4775740;29;20429;-79
2022/03/12 08:22:33;;;;;;;12.45;8.55;;;;;;;;;;4805432;29;20433;-80
2022/03/12 08:24:59;;;;;;;14.98;8.50;;;;;;;;;;4772614;29;20784;-80
2022/03/12 08:27:25;;;;;;;14.15;8.43;;;;;;;;;;4801663;29;20803;-79
2022/03/12 08:29:51;;;;;;;13.50;8.60;;;;;;;;;;4754858;29;20428;-79
2022/03/12 08:32:17;;;;;;;13.07;8.63;;;;;;;;;;4783912;29;20465;-79
2022/03/12 08:34:44;;;;;;;16.25;8.68;;;;;;;;;;4786966;29;20431;-80
2022/03/12 08:37:10;;;;;;;15.80;8.98;;;;;;;;;;4795408;29;20438;-80
2022/03/12 08:39:37;;;;;;;15.90;9.18;;;;;;;;;;4797455;29;20485;-80
2022/03/12 08:42:03;;;;;;;13.48;9.27;;;;;;;;;;4788650;29;20901;-79
2022/03/12 08:44:29;;;;;;;13.30;8.85;;;;;;;;;;4787227;29;20714;-80
2022/03/12 08:46:55;;;;;;;13.10;9.25;;;;;;;;;;4783893;29;20956;-80
2022/03/12 08:49:22;;;;;;;14.18;8.93;;;;;;;;;;4800077;29;20417;-79
2022/03/12 08:51:49;;;;;;;13.55;9.15;;;;;;;;;;4771339;29;20812;-80
2022/03/12 08:54:15;;;;;;;14.88;9.55;;;;;;;;;;4771518;29;20435;-79
2022/03/12 08:56:41;;;;;;;14.13;9.35;;;;;;;;;;4786050;29;20886;-79
2022/03/12 08:59:08;;;;;;;13.38;8.70;;;;;;;;;;4772322;29;20528;-79
2022/03/12 09:01:34;;;;;;;13.80;9.18;;;10.10;99.00;;;;;;4786492;29;20571;-77
2022/03/12 09:04:00;;;;;;;16.15;10.38;;;;;;;;;;4772317;29;20439;-78
2022/03/12 09:06:28;;;;;;;15.32;8.82;;;;;;;;;;4817924;29;20795;-77
2022/03/12 09:08:54;;;;;;;13.23;9.18;;;;;;;;;;4799618;29;20427;-76
2022/03/12 09:11:20;;;;;;;15.60;9.25;;;;;;;;;;4786159;29;20439;-78
2022/03/12 09:13:47;;;;;;;13.25;9.07;;;;;;;;;;4777835;29;20429;-78
2022/03/12 09:16:14;;;;;;;13.80;9.35;;;;;;;;;;4814805;29;20436;-78
2022/03/12 09:18:42;;;;;;;14.60;9.55;;;10.80;99.90;;;;;;4771802;29;20488;-79
2022/03/12 09:21:11;;;;;;;13.35;9.32;;;;;;;;;;4787220;29;20788;-78
2022/03/12 09:23:38;;;;;;;15.48;9.70;;;;;;;;;;4820123;29;20427;-78
2022/03/12 09:26:05;;;;;;;14.82;9.80;;;;;;;;;;4790230;29;20841;-79
2022/03/12 09:28:31;;;;;;;13.98;9.55;;;;;;;;;;4820455;29;20488;-81
2022/03/12 09:30:58;;;;;;;14.52;9.55;;;;;;;;;;4790929;29;20496;-80
2022/03/12 09:33:24;;;;;;;17.50;9.63;;;;;;;;;;4776257;29;20427;-80
2022/03/12 09:35:54;;;;;;;15.75;9.98;;;;;;;;;;4807300;29;20784;-80
2022/03/12 09:38:20;;;;;;;14.98;9.68;;;;;;;;;;4790886;29;21277;-83
2022/03/12 09:40:47;;;;;;;14.52;9.50;;;;;;;;;;4806352;29;21112;-79
2022/03/12 09:43:13;;;;;;;12.48;8.95;;;;;;;;;;4789378;29;20467;-80
2022/03/12 09:45:39;;;;;;;15.48;9.38;;;;;;;;;;4806294;29;20450;-80
2022/03/12 09:48:08;;;;;;;13.40;9.35;;;12.10;99.90;;;;;;4790090;29;20431;-80
2022/03/12 09:50:34;;;;;;;14.13;9.37;;;;;;;;;;4796296;29;20469;-79
2022/03/12 09:53:01;;;;;;;11.88;9.15;;;;;;;;;;4812186;29;20421;-80
2022/03/12 09:55:27;;;;;;;12.80;9.10;;;;;;;;;;4794499;29;20780;-80
2022/03/12 09:57:53;;;;;;;13.90;8.82;;;;;;;;;;4789436;29;20462;-80
2022/03/12 10:00:19;;;;;;;15.23;9.40;;;;;;;;;;4774624;29;20491;-80
2022/03/12 10:02:46;;;;;;;13.45;9.00;;;12.00;99.90;;;;;;4790078;29;20765;-79
2022/03/12 10:05:13;;;;;;;11.43;8.60;;;;;;;;;;4796633;29;20986;-79
2022/03/12 10:07:41;;;;;;;13.60;9.48;;;12.30;99.90;;;;;;4830877;29;20959;-78
2022/03/12 10:10:11;;;;;;;12.80;8.90;;;;;;;;;;4792719;29;20442;-79
2022/03/12 10:12:37;;;;;;;13.73;8.95;;;;;;;;;;4788381;29;20427;-78
2022/03/12 10:15:03;;;;;;;13.02;9.45;;;;;;;;;;4796469;29;20513;-78
2022/03/12 10:17:30;;;;;;;13.70;9.25;;;;;;;;;;4793886;29;20517;-78
2022/03/12 10:19:57;;;;;;;12.50;8.50;;;;;;;;;;4803836;29;20514;-79
2022/03/12 10:22:23;;;;;;;13.05;8.20;;;;;;;;;;4789662;29;20484;-79
2022/03/12 10:24:50;;;;;;;10.90;8.02;;;;;;;;;;4789475;29;20434;-79
2022/03/12 10:27:16;;;;;;;10.77;8.02;;;;;;;;;;4773814;29;20451;-79
2022/03/12 10:29:43;;;;;;;11.98;8.00;;;;;;;;;;4818949;29;20435;-81
2022/03/12 10:32:23;;;;;;;13.10;8.35;;;;;;;;;;4786294;29;20533;-81
2022/03/12 10:34:52;;;;;;;11.68;7.80;;;;;;;;;;4813900;29;20519;-80
2022/03/12 10:37:26;;;;;;;11.68;7.63;;;;;;;;;;4784866;29;20440;-80
2022/03/12 10:40:08;;;;;;;12.55;8.05;;;;;;;;;;4813946;29;20997;-80
2022/03/12 10:42:36;;;;;;;11.82;7.93;;;12.90;99.90;;;;;;4790017;29;20487;-79
2022/03/12 10:45:13;;;;;;;14.38;7.55;;;;;;;;;;4769398;29;20435;-79
2022/03/12 10:47:45;;;;;;;10.03;7.40;;;12.90;99.90;;;;;;4780138;29;20510;-76
2022/03/12 10:50:22;;;;;;;9.95;7.35;;;;;;;;;;4780694;29;20429;-76
2022/03/12 10:52:54;;;;;;;10.88;7.20;;;13.10;99.90;;;;;;4818936;29;20937;-76
2022/03/12 10:55:29;;;;;;;9.38;7.07;;;13.40;99.90;;;;;;4803112;29;20832;-76
2022/03/12 10:58:25;;;;;;;10.60;7.05;;;13.50;99.90;;;;;;4818616;29;20920;-76
2022/03/12 11:00:56;;;;;;;11.05;7.38;;;13.40;99.90;;;;;;4802676;29;20425;-76
2022/03/12 11:03:28;;;;;;;10.23;7.30;;;;;;;;;;4761469;29;20430;-77
2022/03/12 11:05:55;;;;;;;13.15;7.63;;;;;;;;;;4768900;30;20532;-76
2022/03/12 11:08:29;;;;;;;10.23;6.93;;;13.70;99.90;;;;;;4783207;29;20423;-76
2022/03/12 11:10:59;;;;;;;11.80;6.93;;;;;;;;;;4815212;29;20435;-76
2022/03/12 11:13:40;;;;;;;10.50;6.28;;;13.90;99.90;;;;;;4781789;29;20432;-76
2022/03/12 11:16:14;;;;;;;10.25;5.90;;;;;;;;;;4789726;29;20848;-76
2022/03/12 11:18:53;;;;;;;10.55;6.30;;;13.80;99.90;;;;;;4795750;29;20484;-76
2022/03/12 11:21:37;;;;;;;9.05;6.20;;;;;;;;;;4777936;29;20916;-76
2022/03/12 11:24:05;;;;;;;9.68;6.50;;;;;;;;;;4809926;29;20525;-76
2022/03/12 11:26:31;;;;;;;8.07;6.03;;;;;;;;;;4787666;29;20443;-76
2022/03/12 11:28:58;;;;;;;10.57;6.65;;;;;;;;;;4792107;29;20949;-76
2022/03/12 11:31:49;;;;;;;10.83;6.30;;;13.90;99.90;;;;;;4796940;29;20468;-75
2022/03/12 11:34:20;;;;;;;13.55;6.95;;;13.70;99.90;;;;;;4786645;29;20934;-75
2022/03/12 11:36:55;;;;;;;10.82;6.50;;;;;;;;;;4786377;29;20432;-76
2022/03/12 11:39:32;;;;;;;9.10;6.43;;;;;;;;;;4787237;29;20557;-76
2022/03/12 11:42:08;;;;;;;9.10;6.50;;;;;;;;;;4797607;29;20479;-77
2022/03/12 11:44:34;;;;;;;10.30;6.60;;;;;;;;;;4809906;29;20928;-75
2022/03/12 11:47:01;;;;;;;9.13;6.47;;;;;;;;;;4795889;29;20959;-76
2022/03/12 11:49:27;;;;;;;10.10;6.30;;;;;;;;;;4805769;29;20423;-77
2022/03/12 11:51:54;;;;;;;8.40;6.10;;;;;;;;;;4805868;29;20429;-76
2022/03/12 11:54:20;;;;;;;8.63;5.90;;;;;;;;;;4788418;29;20425;-77
2022/03/12 11:56:46;;;;;;;8.00;5.70;;;;;;;;;;4784983;29;20433;-76
2022/03/12 11:59:12;;;;;;;11.57;6.20;;;;;;;;;;4778246;29;20543;-76
2022/03/12 12:01:40;;;;;;;12.23;5.83;;;;;;;;;;4805238;29;20432;-76
2022/03/12 12:04:07;;;;;;;9.13;6.00;;;;;;;;;;4803049;29;20510;-76
2022/03/12 12:06:34;;;;;;;10.35;6.05;;;;;;;;;;4806036;29;20457;-77
2022/03/12 12:09:01;;;;;;;10.50;5.73;;;;;;;;;;4770301;30;20946;-75
2022/03/12 12:11:31;;;;;;;7.35;5.20;;;;;;;;;;4770416;30;20536;-75
2022/03/12 12:13:58;;;;;;;9.63;5.13;;;;;;;;;;4773855;29;20488;-76
2022/03/12 12:16:25;;;;;;;8.40;5.38;;;;;;;;;;4802101;29;20449;-76
2022/03/12 12:18:52;;;;;;;7.28;5.30;;;;;;;;;;4773996;29;20507;-75
2022/03/12 12:21:18;;;;;;;8.65;5.45;;;14.90;99.90;;;;;;4775257;29;20427;-76
2022/03/12 12:23:45;;;;;;;10.27;5.32;;;;;;;;;;4782430;29;20475;-77
2022/03/12 12:26:13;;;;;;;8.48;5.68;;;;;;;;;;4787658;29;20447;-76
2022/03/12 12:28:52;;;;;;;13.30;7.03;;;;;;;;;;4774709;29;20527;-76
2022/03/12 12:31:26;;;;;;;9.23;6.00;;;;;;;;;;4807185;29;20428;-76
2022/03/12 12:33:52;;;;;;;9.93;6.28;;;;;;;;;;4805132;29;20430;-76
2022/03/12 12:36:21;;;;;;;10.43;5.90;;;14.60;99.90;;;;;;4766422;30;20513;-76
2022/03/12 12:39:09;;;;;;;9.00;5.32;;;14.90;99.90;;;;;;4786376;29;20621;-76
2022/03/12 12:42:01;;;;;;;9.15;5.95;;;14.60;99.90;;;;;;4764261;29;20443;-76
2022/03/12 12:44:40;;;;;;;8.60;5.88;;;;;;;;;;4816245;29;20431;-76
2022/03/12 12:47:07;;;;;;;8.37;5.30;;;;;;;;;;4778596;29;20464;-76
2022/03/12 12:49:36;;;;;;;9.88;5.40;;;;;;;;;;4809246;29;20478;-76
2022/03/12 12:52:03;;;;;;;9.38;5.50;;;14.70;99.90;;;;;;4789734;29;20516;-76
2022/03/12 12:54:56;;;;;;;8.70;5.20;;;14.70;99.90;;;;;;4770219;30;20433;-77
2022/03/12 12:57:40;;;;;;;8.48;5.20;;;;;;;;;;4745791;30;20437;-77
2022/03/12 13:00:37;;;;;;;7.78;5.18;;;15.00;99.90;;;;;;4777943;29;20446;-77
2022/03/12 13:03:13;;;;;;;11.10;6.03;;;15.10;99.90;;;;;;4800018;29;20515;-77
2022/03/12 13:05:42;;;;;;;9.63;5.43;;;;;;;;;;4776725;29;20436;-77
2022/03/12 13:08:09;;;;;;;9.38;5.25;;;15.50;99.90;;;;;;4800283;29;20428;-77
2022/03/12 13:10:36;;;;;;;9.27;5.50;;;;;;;;;;4757596;30;20470;-77
2022/03/12 13:13:09;;;;;;;9.55;5.75;;;;;;;;;;4773570;29;20425;-77
2022/03/12 13:15:39;;;;;;;7.20;5.30;;;;;;;;;;4788220;29;20529;-77
2022/03/12 13:18:17;;;;;;;12.50;5.57;;;;;;;;;;4767828;29;20431;-77
2022/03/12 13:20:47;;;;;;;7.65;5.40;;;;;;;;;;4773271;30;20433;-77
2022/03/12 13:23:15;;;;;;;9.15;5.60;;;15.40;99.90;;;;;;4789485;29;20437;-77
2022/03/12 13:25:57;;;;;;;8.07;5.40;;;15.00;99.90;;;;;;4786135;29;20438;-77
2022/03/12 13:28:37;;;;;;;7.78;5.63;;;15.00;99.90;;;;;;4787499;29;21042;-77
2022/03/12 13:31:13;;;;;;;17.83;8.68;;;;;;;;;;4772932;30;20432;-77
2022/03/12 13:33:39;;;;;;;9.07;5.93;;;14.20;99.90;;;;;;4789139;29;20440;-76
2022/03/12 13:36:06;;;;;;;8.77;6.00;;;;;;;;;;4772332;29;20433;-76
2022/03/12 13:38:32;;;;;;;10.23;6.18;;;;;;;;;;4773812;29;20432;-76
2022/03/12 13:40:58;;;;;;;12.80;6.32;;;;;;;;;;4778962;30;20449;-76
2022/03/12 13:43:24;;;;;;;9.33;6.30;;;;;;;;;;4782047;29;20434;-76
2022/03/12 13:45:59;;;;;;;8.68;5.72;;;;;;;;;;4779868;29;20804;-75
2022/03/12 13:48:26;;;;;;;12.45;5.65;;;;;;;;;;4807660;29;20427;-76
2022/03/12 13:50:56;;;;;;;8.98;5.18;;;;;;;;;;4809570;29;20439;-76
2022/03/12 13:53:27;;;;;;;10.60;6.00;;;;;;;;;;4800962;29;20923;-76
2022/03/12 13:56:01;;;;;;;11.35;6.28;;;;;;;;;;4789601;29;20433;-76
2022/03/12 13:58:30;;;;;;;9.27;5.57;;;;;;;;;;4789551;29;20429;-77
2022/03/12 14:00:59;;;;;;;9.80;5.72;;;14.50;99.90;;;;;;4760767;29;20507;-76
2022/03/12 14:03:29;;;;;;;11.50;5.68;;;14.50;99.90;;;;;;4775559;29;20430;-76
2022/03/12 14:05:56;;;;;;;9.93;5.70;;;;;;;;;;4775488;29;20490;-77
2022/03/12 14:08:24;;;;;;;12.35;5.93;;;14.40;99.90;;;;;;4804045;29;20447;-76
2022/03/12 14:10:50;;;;;;;8.60;5.50;;;14.40;99.90;;;;;;4784233;29;20429;-76
2022/03/12 14:13:17;;;;;;;10.50;5.68;;;;;;;;;;4790313;29;20480;-76
2022/03/12 14:15:43;;;;;;;7.93;5.20;;;;;;;;;;4790288;29;20431;-76
2022/03/12 14:18:10;;;;;;;9.60;5.18;;;;;;;;;;4787361;29;20829;-76
2022/03/12 14:20:43;;;;;;;11.10;5.65;;;;;;;;;;4789288;29;20479;-76